Chubu Centrair International Airport
RJGG : now visible

Airfield :











YOU CAN JOIN US ON...

 
LOGIN :

Register | Disclaimer

   EN    FR    IT 

 









Legend :    VFR   Marginal VFR   IFR   Intensive IFR   Very Intensive IFR
Visi :
Ceiling :
>= 8 km
>= 3000ft
5 to 8 km
1000 to 3000 ft
1500m to 5 km
500 to 1000 ft
800 to 1500m
200 to 500 ft
< 800m
< 200 ft
Symbols :   Thunderstorms  Fog  Heavy snow  Heavy precipitations  Wind > 20 kt






- Airport Elevation : 15 ft
- IATA code : NGO


RJGG - Chubu Centrair International

CURRENT METAR :
  • 231000Z 14007KT 9999 FEW020 BKN/// 20/17 Q1010 NOSIG

EXPIRED METARs :
  • 230930Z 14007KT 9999 FEW020 BKN/// 21/17 Q1010 NOSIG
  • 230900Z 15010KT 9999 FEW020 BKN/// 21/18 Q1010 NOSIG
  • 230830Z 16010KT 9999 FEW020 BKN/// 21/18 Q1010 NOSIG
  • 230800Z 16010KT 9999 FEW020 BKN/// 21/19 Q1010 NOSIG
  • 230730Z 17014KT 9999 FEW020 BKN150 BKN/// 22/19 Q1010 NOSIG
  • 230700Z 17011KT 9999 FEW020 BKN/// 22/19 Q1010 NOSIG
  • 230630Z 16008KT 9999 FEW020 BKN/// 23/18 Q1010 NOSIG
  • 230600Z 17010KT 9999 FEW020 BKN140 BKN/// 23/18 Q1011 NOSIG
  • 230530Z 19009KT 9999 FEW020 BKN130 BKN/// 22/19 Q1011 NOSIG

TAF TAF RJGG
Valid from the 23 at 06:00 until the 24 at 12:00 UTC


230505Z 2306/2412 16006KT 9999 FEW020 SCT030
BECMG 2312/2314 32008KT
BECMG 2406/2409 32018KT
RJJJ FIR / Asia



MET'MAP, your aeronautical weather chart ! - Copyright ORBIFLY December 2007 - Disclaimer

ORBIFLY MET'MAP TEAM :

Programming & Development : Alexandra Zaïnal
Original concept : Baudouin d'Aumeries
Technical & hardware support : Manuel Goepfert
Assistance : Marc-Olivier Méhu




SOURCES & CREDITS :

   NOAA       Earth
Advisory